createdAt,value
2023-03-28T00:01:22.643Z,13.80
2023-03-28T00:03:53.164Z,12.52
2023-03-28T00:06:22.340Z,19.55
2023-03-28T00:08:51.447Z,9.68
2023-03-28T00:11:23.501Z,15.25
2023-03-28T00:13:58.635Z,12.75
2023-03-28T00:16:32.535Z,14.27
2023-03-28T00:19:09.018Z,18.73
2023-03-28T00:21:42.364Z,7.88
2023-03-28T00:24:14.212Z,14.63
2023-03-28T00:26:45.080Z,16.45
2023-03-28T00:29:21.397Z,11.40
2023-03-28T00:31:52.074Z,14.38
2023-03-28T00:34:23.520Z,25.10
2023-03-28T00:36:54.394Z,14.55
2023-03-28T00:39:23.493Z,6.45
2023-03-28T00:41:52.852Z,9.52
2023-03-28T00:44:46.642Z,13.77
2023-03-28T00:47:36.977Z,18.20
2023-03-28T00:50:16.609Z,12.13
2023-03-28T00:52:54.866Z,10.65
2023-03-28T00:55:31.833Z,10.85
2023-03-28T00:58:01.715Z,15.77
2023-03-28T01:00:33.514Z,18.77
2023-03-28T01:03:03.811Z,18.55
2023-03-28T01:05:36.191Z,9.98
2023-03-28T01:08:10.950Z,10.52
2023-03-28T01:10:40.005Z,12.93
2023-03-28T01:13:09.040Z,10.07
2023-03-28T01:15:38.000Z,18.88
2023-03-28T01:18:11.726Z,12.48
2023-03-28T01:21:31.351Z,14.38
2023-03-28T01:24:41.645Z,12.48
2023-03-28T01:27:16.089Z,18.00
2023-03-28T01:30:24.984Z,12.55
2023-03-28T01:33:36.979Z,16.20
2023-03-28T01:36:59.608Z,12.00
2023-03-28T01:39:43.266Z,13.25
2023-03-28T01:42:23.460Z,16.70
2023-03-28T01:45:05.769Z,17.25
2023-03-28T01:47:40.601Z,13.38
2023-03-28T01:50:18.421Z,12.90
2023-03-28T01:52:58.518Z,14.32
2023-03-28T01:55:41.575Z,15.73
2023-03-28T01:58:19.660Z,15.45
2023-03-28T02:00:54.553Z,16.05
2023-03-28T02:03:28.253Z,13.77
2023-03-28T02:06:00.116Z,18.15
2023-03-28T02:08:34.141Z,16.98
2023-03-28T02:11:02.632Z,12.07
2023-03-28T02:13:38.003Z,16.25
2023-03-28T02:16:09.568Z,10.65
2023-03-28T02:18:45.662Z,10.57
2023-03-28T02:21:20.455Z,22.85
2023-03-28T02:23:53.864Z,18.95
2023-03-28T02:26:23.951Z,20.58
2023-03-28T02:28:56.898Z,12.48
2023-03-28T02:31:26.049Z,21.83
2023-03-28T02:33:56.220Z,15.15
2023-03-28T02:36:45.501Z,20.02
2023-03-28T02:39:44.093Z,18.90
2023-03-28T02:42:55.062Z,16.05
2023-03-28T02:45:52.856Z,15.13
2023-03-28T02:48:38.048Z,18.90
2023-03-28T02:51:20.544Z,16.40
2023-03-28T02:53:59.839Z,12.05
2023-03-28T02:56:41.323Z,15.02
2023-03-28T02:59:15.907Z,12.25
2023-03-28T03:01:45.075Z,19.58
2023-03-28T03:04:17.513Z,13.13
2023-03-28T03:06:48.561Z,12.65
2023-03-28T03:09:18.758Z,14.43
2023-03-28T03:11:48.633Z,24.30
2023-03-28T03:14:17.242Z,23.08
2023-03-28T03:16:45.911Z,21.73
2023-03-28T03:19:14.294Z,26.80
2023-03-28T03:21:42.644Z,21.67
2023-03-28T03:24:11.235Z,20.70
2023-03-28T03:26:40.259Z,27.50
2023-03-28T03:29:10.482Z,27.13
2023-03-28T03:31:39.068Z,16.70
2023-03-28T03:34:07.763Z,21.30
2023-03-28T03:36:36.272Z,31.23
2023-03-28T03:39:05.129Z,15.15
2023-03-28T03:41:33.737Z,21.65
2023-03-28T03:44:02.534Z,14.32
2023-03-28T03:46:32.945Z,31.30
2023-03-28T03:49:01.352Z,22.58
2023-03-28T03:51:30.096Z,27.83
2023-03-28T03:53:59.729Z,13.85
2023-03-28T03:56:28.373Z,12.65
2023-03-28T03:58:56.762Z,16.55
2023-03-28T04:01:26.043Z,21.95
2023-03-28T04:03:56.590Z,18.65
2023-03-28T04:06:25.577Z,25.55
2023-03-28T04:08:54.090Z,23.85
2023-03-28T04:11:22.601Z,18.70
2023-03-28T04:13:56.460Z,21.95
2023-03-28T04:16:24.911Z,21.23
2023-03-28T04:18:57.977Z,26.30
2023-03-28T04:21:30.700Z,21.60
2023-03-28T04:24:02.480Z,12.82
2023-03-28T04:26:35.906Z,16.42
2023-03-28T04:29:04.638Z,31.40
2023-03-28T04:31:35.935Z,21.20
2023-03-28T04:34:06.689Z,23.10
2023-03-28T04:36:37.975Z,25.77
2023-03-28T04:39:06.480Z,27.02
2023-03-28T04:41:35.986Z,14.52
2023-03-28T04:44:04.650Z,24.20
2023-03-28T04:46:33.488Z,19.15
2023-03-28T04:49:02.225Z,19.20
2023-03-28T04:51:33.074Z,24.27
2023-03-28T04:54:01.818Z,17.50
2023-03-28T04:56:30.800Z,13.93
2023-03-28T04:58:59.643Z,15.52
2023-03-28T05:01:28.689Z,27.42
2023-03-28T05:03:57.759Z,29.17
2023-03-28T05:06:27.741Z,22.70
2023-03-28T05:08:58.545Z,22.23
2023-03-28T05:11:29.526Z,20.52
2023-03-28T05:13:58.055Z,24.73
2023-03-28T05:16:26.745Z,22.13
2023-03-28T05:18:56.270Z,22.55
2023-03-28T05:21:27.842Z,19.02
2023-03-28T05:24:00.330Z,22.02
2023-03-28T05:26:28.858Z,36.85
2023-03-28T05:28:59.546Z,31.27
2023-03-28T05:31:30.704Z,25.88
2023-03-28T05:33:59.160Z,22.42
2023-03-28T05:36:29.061Z,23.10
2023-03-28T05:39:01.116Z,25.63
2023-03-28T05:41:29.981Z,26.55
2023-03-28T05:43:58.583Z,21.02
2023-03-28T05:46:28.234Z,20.20
2023-03-28T05:48:56.719Z,17.48
2023-03-28T05:51:25.463Z,25.45
2023-03-28T05:53:55.143Z,25.13
2023-03-28T05:56:25.192Z,25.05
2023-03-28T05:58:54.004Z,20.10
2023-03-28T06:01:23.541Z,25.33
2023-03-28T06:03:52.568Z,28.42
2023-03-28T06:06:21.839Z,24.83
2023-03-28T06:08:51.379Z,21.20
2023-03-28T06:11:20.132Z,20.13
2023-03-28T06:13:51.717Z,33.28
2023-03-28T06:16:30.664Z,34.80
2023-03-28T06:19:14.307Z,21.90
2023-03-28T06:24:14.928Z,28.50
2023-03-28T06:26:45.788Z,17.50
2023-03-28T06:29:19.844Z,19.40
2023-03-28T06:38:03.490Z,18.08
2023-03-28T06:40:32.162Z,21.48
2023-03-28T06:43:01.024Z,22.40
2023-03-28T06:45:31.859Z,25.52
2023-03-28T06:48:05.286Z,22.92
2023-03-28T06:50:34.904Z,20.95
2023-03-28T06:53:05.492Z,18.50
2023-03-28T06:55:36.465Z,19.10
2023-03-28T06:58:06.996Z,14.02
2023-03-28T07:00:42.170Z,24.02
2023-03-28T07:05:40.487Z,17.35
2023-03-28T07:08:11.245Z,16.02
2023-03-28T07:10:46.819Z,12.90
2023-03-28T07:13:16.424Z,16.67
2023-03-28T07:15:47.089Z,13.27
2023-03-28T07:18:16.117Z,10.07
2023-03-28T07:20:51.932Z,16.40
2023-03-28T07:23:33.688Z,10.98
2023-03-28T07:26:03.643Z,13.35
2023-03-28T07:31:22.954Z,11.82
2023-03-28T07:36:25.966Z,14.23
2023-03-28T07:38:54.870Z,11.18
2023-03-28T07:41:23.770Z,11.88
2023-03-28T07:43:53.861Z,12.48
2023-03-28T07:46:25.651Z,13.38
2023-03-28T07:48:57.134Z,15.50
2023-03-28T07:51:26.783Z,11.05
2023-03-28T07:53:55.940Z,15.40
2023-03-28T07:56:25.977Z,21.27
2023-03-28T07:58:55.275Z,17.15
2023-03-28T08:01:27.452Z,13.88
2023-03-28T08:03:56.126Z,12.13
2023-03-28T08:06:32.345Z,13.48
2023-03-28T08:09:02.549Z,14.10
2023-03-28T08:11:31.608Z,14.07
2023-03-28T08:14:21.309Z,9.35
2023-03-28T08:16:52.359Z,11.63
2023-03-28T08:19:22.391Z,16.63
2023-03-28T08:21:53.879Z,18.27
2023-03-28T08:24:34.901Z,11.88
2023-03-28T08:27:04.738Z,16.48
2023-03-28T08:29:33.500Z,16.77
2023-03-28T08:32:06.491Z,10.70
2023-03-28T08:34:39.725Z,11.65
2023-03-28T08:37:09.377Z,18.30
2023-03-28T08:39:41.554Z,15.02
2023-03-28T08:42:44.824Z,12.50
2023-03-28T08:45:37.888Z,18.50
2023-03-28T08:48:27.624Z,12.48
2023-03-28T08:51:02.977Z,18.85
2023-03-28T08:56:34.627Z,9.38
2023-03-28T08:59:31.266Z,11.77
2023-03-28T09:05:17.844Z,10.60
2023-03-28T09:07:59.819Z,13.52
2023-03-28T09:10:37.226Z,9.43
2023-03-28T09:13:25.138Z,7.97
2023-03-28T09:16:29.991Z,13.13
2023-03-28T09:19:48.307Z,8.85
2023-03-28T09:22:39.107Z,12.10
2023-03-28T09:28:37.301Z,9.40
2023-03-28T09:31:13.241Z,10.80
2023-03-28T09:33:51.935Z,5.72
2023-03-28T09:36:31.565Z,8.25
2023-03-28T09:39:28.041Z,10.07
2023-03-28T09:42:09.652Z,12.23
2023-03-28T09:44:54.548Z,8.05
2023-03-28T09:47:24.515Z,7.25
2023-03-28T09:50:02.230Z,9.32
2023-03-28T09:52:35.496Z,13.52
2023-03-28T09:55:07.148Z,7.60
2023-03-28T09:58:04.636Z,6.53
2023-03-28T10:00:43.475Z,9.75
2023-03-28T10:03:30.449Z,10.45
2023-03-28T10:06:03.967Z,20.27
2023-03-28T10:08:42.612Z,7.25
2023-03-28T10:11:18.721Z,8.73
2023-03-28T10:13:51.416Z,11.85
2023-03-28T10:16:28.927Z,11.27
2023-03-28T10:19:00.925Z,7.22
2023-03-28T10:21:34.473Z,8.65
2023-03-28T10:24:07.463Z,10.50
2023-03-28T10:26:41.151Z,8.48
2023-03-28T10:29:10.414Z,10.77
2023-03-28T10:31:43.554Z,10.07
2023-03-28T10:34:28.315Z,12.10
2023-03-28T10:36:59.115Z,9.20
2023-03-28T10:39:30.809Z,13.10
2023-03-28T10:42:04.483Z,8.93
2023-03-28T10:44:42.787Z,12.07
2023-03-28T10:47:19.879Z,10.73
2023-03-28T10:49:52.997Z,12.25
2023-03-28T10:52:44.447Z,10.75
2023-03-28T10:55:22.382Z,11.30
2023-03-28T10:58:09.097Z,7.65
2023-03-28T11:00:42.794Z,8.30
2023-03-28T11:03:58.857Z,11.25
2023-03-28T11:06:40.957Z,7.38
2023-03-28T11:09:20.648Z,13.82
2023-03-28T11:12:14.921Z,10.82
2023-03-28T11:15:13.118Z,9.77
2023-03-28T11:17:56.797Z,9.70
2023-03-28T11:20:45.208Z,10.10
2023-03-28T11:23:48.604Z,10.82
2023-03-28T11:26:25.139Z,8.80
2023-03-28T11:29:16.984Z,8.18
2023-03-28T11:31:59.792Z,12.23
2023-03-28T11:34:33.609Z,13.15
2023-03-28T11:37:11.291Z,9.80
2023-03-28T11:39:52.165Z,10.25
2023-03-28T11:42:28.881Z,7.53
2023-03-28T11:45:07.876Z,5.78
2023-03-28T11:47:46.846Z,7.43
2023-03-28T11:50:23.691Z,6.68
2023-03-28T11:53:01.204Z,7.00
2023-03-28T11:55:37.550Z,11.48
2023-03-28T11:58:16.156Z,5.85
2023-03-28T12:00:52.601Z,8.30
2023-03-28T12:03:29.615Z,4.60
2023-03-28T12:06:05.608Z,9.77
2023-03-28T12:08:42.315Z,9.32
2023-03-28T12:11:29.496Z,9.32
2023-03-28T12:14:12.186Z,7.10
2023-03-28T12:16:47.662Z,5.00
2023-03-28T12:22:05.507Z,6.68
2023-03-28T12:24:50.614Z,9.20
2023-03-28T12:27:31.475Z,10.57
2023-03-28T12:30:10.101Z,11.25
2023-03-28T12:32:53.103Z,8.60
2023-03-28T12:35:30.040Z,5.90
2023-03-28T12:38:13.232Z,13.50
2023-03-28T12:41:02.368Z,8.45
2023-03-28T12:43:45.797Z,13.30
2023-03-28T12:46:18.911Z,12.02
2023-03-28T12:48:55.412Z,9.73
2023-03-28T12:51:33.512Z,8.70
2023-03-28T12:54:11.981Z,8.23
2023-03-28T12:56:41.297Z,7.80
2023-03-28T12:59:58.302Z,9.02
2023-03-28T13:02:37.537Z,9.70
2023-03-28T13:05:17.400Z,7.10
2023-03-28T13:08:05.492Z,12.00
2023-03-28T13:10:47.378Z,8.77
2023-03-28T13:13:28.858Z,7.50
2023-03-28T13:16:07.156Z,8.27
2023-03-28T13:18:37.245Z,15.40
2023-03-28T13:21:08.668Z,9.70
2023-03-28T13:23:50.671Z,8.48
2023-03-28T13:26:21.016Z,12.35
2023-03-28T13:29:00.639Z,11.02
2023-03-28T13:31:31.465Z,9.48
2023-03-28T13:34:04.275Z,12.18
2023-03-28T13:36:36.018Z,6.55
2023-03-28T13:39:28.868Z,8.50
2023-03-28T13:42:04.212Z,12.57
2023-03-28T13:47:28.856Z,13.65
2023-03-28T13:50:06.257Z,8.23
2023-03-28T13:52:39.533Z,10.77
2023-03-28T13:55:26.822Z,12.40
2023-03-28T13:57:56.563Z,11.43
2023-03-28T14:00:31.387Z,11.45
2023-03-28T14:03:06.249Z,13.30
2023-03-28T14:05:46.290Z,9.40
2023-03-28T14:08:30.815Z,9.13
2023-03-28T14:11:03.060Z,8.27
2023-03-28T14:13:33.918Z,6.82
2023-03-28T14:16:03.370Z,10.65
2023-03-28T14:18:38.869Z,10.27
2023-03-28T14:21:11.835Z,8.38
2023-03-28T14:23:44.806Z,10.63
2023-03-28T14:26:25.423Z,14.57
2023-03-28T14:28:58.909Z,11.00
2023-03-28T14:31:37.003Z,8.48
2023-03-28T14:34:25.693Z,13.05
2023-03-28T14:37:04.402Z,12.75
2023-03-28T14:39:35.521Z,6.82
2023-03-28T14:55:32.842Z,6.80
2023-03-28T15:04:49.561Z,14.27
2023-03-28T15:07:38.594Z,11.77
2023-03-28T15:10:12.957Z,9.32
2023-03-28T15:12:48.960Z,8.40
2023-03-28T15:15:22.974Z,13.48
2023-03-28T15:17:56.365Z,12.25
2023-03-28T15:20:39.201Z,7.65
2023-03-28T15:23:17.158Z,11.98
2023-03-28T15:25:47.832Z,9.50
2023-03-28T15:28:52.191Z,12.73
2023-03-28T15:31:24.101Z,10.70
2023-03-28T15:33:56.183Z,13.50
2023-03-28T15:36:36.376Z,12.55
2023-03-28T15:39:23.079Z,9.32
2023-03-28T15:42:00.797Z,7.88
2023-03-28T15:44:38.227Z,8.52
2023-03-28T15:47:13.598Z,10.52
2023-03-28T15:52:21.045Z,10.32
2023-03-28T15:54:59.236Z,7.68
2023-03-28T15:57:33.540Z,9.25
2023-03-28T16:00:04.997Z,11.77
2023-03-28T16:05:41.593Z,8.98
2023-03-28T16:08:25.164Z,11.75
2023-03-28T16:10:54.190Z,14.32
2023-03-28T16:13:23.007Z,12.02
2023-03-28T16:15:55.845Z,8.57
2023-03-28T16:18:27.883Z,14.57
2023-03-28T16:20:58.072Z,11.55
2023-03-28T16:23:27.241Z,11.93
2023-03-28T16:25:55.987Z,14.68
2023-03-28T16:28:26.379Z,11.25
2023-03-28T16:30:54.770Z,9.98
2023-03-28T16:33:24.823Z,13.60
2023-03-28T16:35:54.179Z,12.63
2023-03-28T16:38:25.954Z,13.20
2023-03-28T16:40:57.794Z,13.77
2023-03-28T16:43:26.809Z,17.83
2023-03-28T16:45:55.323Z,16.98
2023-03-28T16:48:23.793Z,13.95
2023-03-28T16:50:56.847Z,14.10
2023-03-28T16:53:27.171Z,14.82
2023-03-28T16:55:55.811Z,15.80
2023-03-28T16:58:24.067Z,11.32
2023-03-28T17:00:54.016Z,15.50
2023-03-28T17:03:23.646Z,13.55
2023-03-28T17:05:52.973Z,13.02
2023-03-28T17:08:22.622Z,13.30
2023-03-28T17:10:53.135Z,13.27
2023-03-28T17:13:21.796Z,18.17
2023-03-28T17:15:57.960Z,14.65
2023-03-28T17:18:27.456Z,14.25
2023-03-28T17:21:04.213Z,13.63
2023-03-28T17:23:34.650Z,11.48
2023-03-28T17:26:07.404Z,12.23
2023-03-28T17:28:39.727Z,18.05
2023-03-28T17:31:09.645Z,15.63
2023-03-28T17:33:39.337Z,17.90
2023-03-28T17:36:23.142Z,13.13
2023-03-28T17:38:53.029Z,15.23
2023-03-28T17:41:25.408Z,12.18
2023-03-28T17:43:56.605Z,18.00
2023-03-28T17:46:28.039Z,12.77
2023-03-28T17:48:56.576Z,15.30
2023-03-28T17:51:25.678Z,16.45
2023-03-28T17:53:55.164Z,13.82
2023-03-28T17:56:26.496Z,16.58
2023-03-28T17:58:55.582Z,11.45
2023-03-28T18:01:26.050Z,17.95
2023-03-28T18:03:55.757Z,18.38
2023-03-28T18:06:24.872Z,15.80
2023-03-28T18:08:53.409Z,21.48
2023-03-28T18:11:23.130Z,12.60
2023-03-28T18:13:57.155Z,16.83
2023-03-28T18:19:17.853Z,12.82
2023-03-28T18:21:49.617Z,15.02
2023-03-28T18:24:18.301Z,16.40
2023-03-28T18:26:58.136Z,12.95
2023-03-28T18:29:30.238Z,13.45
2023-03-28T18:31:59.252Z,14.23
2023-03-28T18:34:28.548Z,23.33
2023-03-28T18:36:57.546Z,11.20
2023-03-28T18:39:26.290Z,20.02
2023-03-28T18:41:57.987Z,15.10
2023-03-28T18:44:38.617Z,11.98
2023-03-28T18:47:07.682Z,16.40
2023-03-28T18:49:36.799Z,16.70
2023-03-28T18:52:05.714Z,13.43
2023-03-28T18:54:36.345Z,16.02
2023-03-28T18:57:06.513Z,17.50
2023-03-28T18:59:36.795Z,16.83
2023-03-28T19:02:06.207Z,18.02
2023-03-28T19:04:36.344Z,20.40
2023-03-28T19:07:06.458Z,15.07
2023-03-28T19:09:36.343Z,13.60
2023-03-28T19:12:05.224Z,19.85
2023-03-28T19:14:36.155Z,19.10
2023-03-28T19:17:06.114Z,15.27
2023-03-28T19:19:37.749Z,12.48
2023-03-28T19:22:09.784Z,16.30
2023-03-28T19:24:39.712Z,20.50
2023-03-28T19:27:08.495Z,16.60
2023-03-28T19:29:39.042Z,18.63
2023-03-28T19:32:07.968Z,19.10
2023-03-28T19:37:36.419Z,14.07
2023-03-28T19:40:11.555Z,19.67
2023-03-28T19:42:41.503Z,18.35
2023-03-28T19:45:13.402Z,15.38
2023-03-28T19:47:55.890Z,17.35
2023-03-28T19:50:25.165Z,17.67
2023-03-28T19:52:54.282Z,15.65
2023-03-28T19:55:24.565Z,18.42
2023-03-28T19:57:54.662Z,13.55
2023-03-28T20:00:26.349Z,15.13
2023-03-28T20:02:55.266Z,13.73
2023-03-28T20:05:23.813Z,15.63
2023-03-28T20:07:52.600Z,14.10
2023-03-28T20:10:21.111Z,18.88
2023-03-28T20:12:49.753Z,15.30
2023-03-28T20:15:18.475Z,15.15
2023-03-28T20:17:48.714Z,11.38
2023-03-28T20:20:19.536Z,10.40
2023-03-28T20:22:48.283Z,14.82
2023-03-28T20:25:17.316Z,13.18
2023-03-28T20:27:47.618Z,18.70
2023-03-28T20:30:16.528Z,15.35
2023-03-28T20:32:45.189Z,17.08
2023-03-28T20:35:15.399Z,7.75
2023-03-28T20:37:44.892Z,9.27
2023-03-28T20:40:14.420Z,15.90
2023-03-28T20:42:43.041Z,19.42
2023-03-28T20:45:22.277Z,14.82
2023-03-28T20:47:56.065Z,11.90
2023-03-28T20:50:34.183Z,9.52
2023-03-28T20:53:03.305Z,8.38
2023-03-28T20:55:31.892Z,11.90
2023-03-28T20:58:00.720Z,12.02
2023-03-28T21:00:33.717Z,12.23
2023-03-28T21:03:03.480Z,10.13
2023-03-28T21:05:33.988Z,13.25
2023-03-28T21:08:08.355Z,11.35
2023-03-28T21:10:40.052Z,10.55
2023-03-28T21:13:08.893Z,17.30
2023-03-28T21:15:37.908Z,8.88
2023-03-28T21:18:07.072Z,16.40
2023-03-28T21:20:37.246Z,5.93
2023-03-28T21:23:06.148Z,6.55
2023-03-28T21:25:54.864Z,7.07
2023-03-28T21:28:24.767Z,11.30
2023-03-28T21:31:01.478Z,9.30
2023-03-28T21:33:30.892Z,10.95
2023-03-28T21:36:01.216Z,10.68
2023-03-28T21:38:29.460Z,7.40
2023-03-28T21:40:57.928Z,10.30
2023-03-28T21:43:26.437Z,10.55
2023-03-28T21:45:55.357Z,9.88
2023-03-28T21:48:23.811Z,10.10
2023-03-28T21:50:55.382Z,8.70
2023-03-28T21:53:25.886Z,9.70
2023-03-28T21:55:55.497Z,9.25
2023-03-28T21:58:24.310Z,8.05
2023-03-28T22:00:52.781Z,6.22
2023-03-28T22:03:21.535Z,8.60
2023-03-28T22:05:53.146Z,11.73
2023-03-28T22:08:24.269Z,10.38
2023-03-28T22:10:56.865Z,7.35
2023-03-28T22:13:25.616Z,10.55
2023-03-28T22:15:58.092Z,13.93
2023-03-28T22:18:27.853Z,8.00
2023-03-28T22:20:56.582Z,7.07
2023-03-28T22:23:26.537Z,8.43
2023-03-28T22:25:56.699Z,9.00
2023-03-28T22:28:25.323Z,5.75
2023-03-28T22:30:56.157Z,5.43
2023-03-28T22:33:25.679Z,5.80
2023-03-28T22:35:54.440Z,9.00
2023-03-28T22:38:23.336Z,8.80
2023-03-28T22:40:53.185Z,5.07
2023-03-28T22:43:22.158Z,6.95
2023-03-28T22:45:50.819Z,5.68
2023-03-28T22:48:20.334Z,9.18
2023-03-28T22:50:50.553Z,5.80
2023-03-28T22:53:22.768Z,9.07
2023-03-28T22:55:52.864Z,6.70
2023-03-28T22:58:23.313Z,6.00
2023-03-28T23:00:53.074Z,7.70
2023-03-28T23:03:21.978Z,6.35
2023-03-28T23:05:51.619Z,5.80
2023-03-28T23:08:20.421Z,6.00
2023-03-28T23:10:48.971Z,5.05
2023-03-28T23:13:19.192Z,8.30
2023-03-28T23:15:47.447Z,6.78
2023-03-28T23:18:16.554Z,6.95
2023-03-28T23:20:50.936Z,5.88
2023-03-28T23:23:19.929Z,11.37
2023-03-28T23:25:48.278Z,5.78
2023-03-28T23:28:20.169Z,6.63
2023-03-28T23:30:48.780Z,9.10
2023-03-28T23:33:18.483Z,6.82
2023-03-28T23:35:48.312Z,5.78
2023-03-28T23:38:18.815Z,7.10
2023-03-28T23:40:50.282Z,8.90
2023-03-28T23:43:22.643Z,8.38
2023-03-28T23:45:51.304Z,6.22
2023-03-28T23:48:20.059Z,10.23
2023-03-28T23:50:48.794Z,8.05
2023-03-28T23:53:17.248Z,6.47
2023-03-28T23:55:46.830Z,9.43
2023-03-28T23:58:15.338Z,6.75
